Denison, Kansas
Current Conditions -  °F | °C
As of 9:53 PM on Saturday 22 Nov 2014 (Local Time) from KTOP Reporting Station
Overcast Overcast  
Wind Chill: 57°   Ceiling: 1300
Heat Index: 57°   Visibility: 10mi
Dew Point: 52°   Wind: 14mph
Humidity: 83%   Direction: 180°S
Pressure: 29.69"   Gusts: 23mph
Location:  39.39°N, 95.63°W
Report Text: KTOP 230353Z AUTO 18012G20KT 10SM OVC013 14/11 A2969 RMK AO2 SLP051 T01390111
Loading
Personal Weather Stations






























Interactive Weather Map New forecast layout! Learn more

10-Day Weather Forecast

Advertisements
Track Severe Weather on mobile